createdAt,value
2022-11-14T00:00:00.133Z,2.65
2022-11-14T00:02:46.146Z,2.00
2022-11-14T00:05:31.814Z,2.53
2022-11-14T00:08:23.173Z,2.03
2022-11-14T00:11:09.805Z,2.75
2022-11-14T00:13:57.073Z,2.90
2022-11-14T00:16:42.436Z,3.10
2022-11-14T00:19:27.976Z,2.75
2022-11-14T00:22:13.672Z,3.22
2022-11-14T00:24:59.785Z,3.67
2022-11-14T00:27:45.166Z,3.67
2022-11-14T00:30:30.811Z,3.20
2022-11-14T00:33:20.318Z,3.75
2022-11-14T00:36:06.639Z,3.00
2022-11-14T00:38:56.370Z,3.40
2022-11-14T00:41:42.117Z,5.35
2022-11-14T00:47:15.059Z,5.18
2022-11-14T00:50:00.543Z,6.70
2022-11-14T00:52:45.879Z,6.70
2022-11-14T00:55:31.906Z,6.55
2022-11-14T01:01:02.889Z,7.78
2022-11-14T01:06:39.442Z,6.43
2022-11-14T01:09:26.731Z,5.40
2022-11-14T01:12:12.009Z,4.00
2022-11-14T01:14:57.678Z,2.78
2022-11-14T01:17:42.865Z,4.05
2022-11-14T01:20:30.745Z,5.22
2022-11-14T01:23:17.110Z,5.32
2022-11-14T01:26:06.741Z,5.15
2022-11-14T01:28:53.252Z,5.40
2022-11-14T01:31:39.722Z,5.53
2022-11-14T01:37:13.193Z,4.93
2022-11-14T01:40:00.246Z,5.40
2022-11-14T01:43:16.686Z,5.70
2022-11-14T01:46:29.451Z,5.40
2022-11-14T01:49:17.273Z,6.10
2022-11-14T01:52:30.754Z,5.93
2022-11-14T01:55:16.545Z,4.85
2022-11-14T02:00:47.816Z,4.95
2022-11-14T02:03:38.456Z,5.35
2022-11-14T02:06:27.926Z,5.68
2022-11-14T02:09:14.157Z,4.70
2022-11-14T02:14:48.660Z,4.50
2022-11-14T02:17:35.103Z,4.50
2022-11-14T02:20:28.820Z,4.32
2022-11-14T02:23:15.243Z,4.15
2022-11-14T02:26:02.364Z,4.10
2022-11-14T02:28:53.228Z,3.65
2022-11-14T02:31:38.914Z,4.10
2022-11-14T02:34:24.531Z,3.85
2022-11-14T02:37:09.740Z,3.35
2022-11-14T02:39:55.240Z,4.05
2022-11-14T02:42:40.589Z,3.40
2022-11-14T02:45:26.213Z,6.03
2022-11-14T02:48:12.003Z,3.55
2022-11-14T02:50:57.625Z,3.53
2022-11-14T02:53:42.882Z,3.90
2022-11-14T02:56:30.473Z,3.22
2022-11-14T02:59:28.246Z,3.88
2022-11-14T03:02:14.633Z,3.67
2022-11-14T03:04:59.854Z,3.70
2022-11-14T03:07:48.029Z,3.50
2022-11-14T03:10:33.991Z,3.88
2022-11-14T03:13:19.274Z,3.78
2022-11-14T03:16:14.536Z,3.03
2022-11-14T03:19:00.564Z,4.32
2022-11-14T03:21:46.278Z,3.83
2022-11-14T03:24:31.735Z,3.58
2022-11-14T03:27:17.524Z,3.53
2022-11-14T03:30:03.306Z,3.75
2022-11-14T03:35:36.138Z,4.72
2022-11-14T03:38:23.229Z,4.43
2022-11-14T03:41:08.926Z,3.97
2022-11-14T03:43:54.690Z,4.03
2022-11-14T03:46:40.569Z,4.10
2022-11-14T03:49:26.320Z,3.47
2022-11-14T03:52:12.215Z,3.78
2022-11-14T03:55:00.825Z,3.08
2022-11-14T03:57:46.109Z,3.50
2022-11-14T04:00:31.400Z,2.70
2022-11-14T04:03:17.197Z,2.92
2022-11-14T04:06:03.366Z,3.77
2022-11-14T04:08:48.909Z,3.60
2022-11-14T04:11:34.434Z,3.88
2022-11-14T04:14:20.605Z,3.47
2022-11-14T04:19:51.526Z,4.20
2022-11-14T04:22:37.049Z,4.15
2022-11-14T04:25:22.701Z,3.25
2022-11-14T04:28:09.771Z,3.90
2022-11-14T04:30:55.399Z,3.92
2022-11-14T04:33:40.772Z,3.30
2022-11-14T04:36:28.742Z,3.40
2022-11-14T04:39:14.423Z,3.67
2022-11-14T04:41:59.867Z,3.40
2022-11-14T04:44:45.663Z,3.35
2022-11-14T04:47:31.043Z,3.95
2022-11-14T04:50:16.412Z,4.05
2022-11-14T04:53:02.147Z,3.58
2022-11-14T04:55:47.627Z,4.03
2022-11-14T04:58:33.360Z,4.93
2022-11-14T05:01:19.128Z,6.97
2022-11-14T05:04:04.837Z,5.55
2022-11-14T05:06:50.222Z,7.00
2022-11-14T05:09:37.051Z,8.20
2022-11-14T05:12:22.568Z,7.00
2022-11-14T05:15:09.313Z,6.15
2022-11-14T05:17:57.533Z,5.40
2022-11-14T05:20:42.732Z,5.50
2022-11-14T05:23:29.352Z,4.93
2022-11-14T05:26:18.984Z,4.60
2022-11-14T05:29:04.922Z,4.85
2022-11-14T05:31:50.104Z,4.45
2022-11-14T05:34:35.877Z,4.43
2022-11-14T05:37:22.336Z,3.90
2022-11-14T05:40:08.708Z,4.72
2022-11-14T05:42:57.037Z,4.15
2022-11-14T05:45:42.933Z,4.63
2022-11-14T05:48:29.413Z,4.68
2022-11-14T05:51:22.093Z,5.20
2022-11-14T05:54:07.985Z,4.88
2022-11-14T05:56:53.572Z,5.30
2022-11-14T05:59:38.943Z,5.10
2022-11-14T06:02:24.295Z,5.07
2022-11-14T06:05:10.330Z,5.32
2022-11-14T06:07:57.703Z,4.55
2022-11-14T06:10:43.509Z,5.47
2022-11-14T06:13:29.198Z,5.95
2022-11-14T06:16:17.008Z,6.22
2022-11-14T06:19:02.813Z,6.88
2022-11-14T06:21:48.578Z,6.47
2022-11-14T06:24:34.013Z,7.53
2022-11-14T06:27:20.273Z,6.60
2022-11-14T06:33:20.016Z,6.00
2022-11-14T06:36:09.036Z,5.03
2022-11-14T06:38:54.812Z,5.40
2022-11-14T06:41:40.610Z,6.78
2022-11-14T06:47:35.068Z,9.48
2022-11-14T06:50:54.675Z,9.52
2022-11-14T06:53:42.940Z,10.60
2022-11-14T06:56:28.935Z,10.68
2022-11-14T06:59:17.226Z,9.63
2022-11-14T07:02:03.085Z,9.52
2022-11-14T07:04:49.369Z,7.65
2022-11-14T07:10:20.731Z,4.82
2022-11-14T07:13:11.953Z,4.45
2022-11-14T07:15:58.023Z,3.90
2022-11-14T07:18:46.378Z,5.13
2022-11-14T07:21:34.340Z,5.57
2022-11-14T07:24:19.862Z,5.80
2022-11-14T07:29:56.482Z,4.65
2022-11-14T07:32:44.514Z,5.15
2022-11-14T07:35:30.502Z,4.20
2022-11-14T07:38:23.215Z,4.63
2022-11-14T07:41:13.552Z,4.50
2022-11-14T07:43:59.409Z,4.63
2022-11-14T07:47:11.437Z,4.55
2022-11-14T07:49:58.774Z,5.03
2022-11-14T07:53:22.409Z,5.28
2022-11-14T07:56:12.352Z,5.07
2022-11-14T07:59:00.295Z,5.43
2022-11-14T08:01:50.050Z,4.85
2022-11-14T08:04:36.015Z,5.10
2022-11-14T08:07:33.194Z,5.32
2022-11-14T08:10:21.467Z,4.57
2022-11-14T08:13:30.955Z,4.75
2022-11-14T08:16:16.813Z,4.80
2022-11-14T08:19:09.257Z,4.50
2022-11-14T08:21:56.974Z,4.47
2022-11-14T08:24:42.862Z,5.18
2022-11-14T08:27:31.821Z,4.53
2022-11-14T08:30:17.612Z,5.00
2022-11-14T08:35:49.699Z,4.38
2022-11-14T08:38:38.553Z,3.67
2022-11-14T08:41:25.874Z,3.95
2022-11-14T08:44:11.827Z,4.50
2022-11-14T08:49:46.513Z,4.38
2022-11-14T08:52:32.014Z,5.03
2022-11-14T08:55:18.105Z,5.10
2022-11-14T08:58:03.868Z,5.35
2022-11-14T09:03:35.127Z,4.72
2022-11-14T09:06:21.307Z,3.90
2022-11-14T09:11:52.834Z,4.10
2022-11-14T09:14:38.479Z,3.70
2022-11-14T09:17:24.106Z,4.32
2022-11-14T09:22:58.894Z,4.70
2022-11-14T09:25:44.570Z,4.80
2022-11-14T09:28:31.682Z,4.72
2022-11-14T09:31:24.076Z,3.97
2022-11-14T09:34:10.228Z,4.43
2022-11-14T09:39:48.222Z,4.40
2022-11-14T09:43:32.840Z,4.50
2022-11-14T09:46:51.648Z,3.92
2022-11-14T09:49:46.904Z,3.88
2022-11-14T09:52:47.743Z,4.72
2022-11-14T09:55:37.252Z,5.85
2022-11-14T09:58:23.671Z,7.25
2022-11-14T10:01:37.744Z,5.65
2022-11-14T10:05:01.262Z,5.00
2022-11-14T10:08:08.152Z,6.03
2022-11-14T10:13:58.479Z,4.40
2022-11-14T10:17:13.388Z,4.22
2022-11-14T10:20:22.897Z,4.35
2022-11-14T10:23:46.175Z,3.60
2022-11-14T10:26:58.990Z,3.70
2022-11-14T10:30:06.552Z,3.75
2022-11-14T10:33:26.486Z,4.15
2022-11-14T10:36:42.020Z,3.88
2022-11-14T10:39:46.368Z,3.55
2022-11-14T10:42:38.983Z,4.32
2022-11-14T10:45:34.222Z,3.22
2022-11-14T10:48:42.530Z,2.88
2022-11-14T10:51:39.796Z,2.95
2022-11-14T10:54:34.023Z,2.45
2022-11-14T10:57:22.618Z,2.40
2022-11-14T11:00:20.599Z,2.30
2022-11-14T11:03:09.867Z,2.63
2022-11-14T11:06:09.737Z,2.70
2022-11-14T11:09:22.203Z,1.95
2022-11-14T11:12:09.966Z,2.33
2022-11-14T11:15:19.986Z,3.38
2022-11-14T11:18:41.436Z,2.35
2022-11-14T11:21:27.574Z,2.15
2022-11-14T11:27:31.742Z,1.83
2022-11-14T11:30:27.262Z,2.03
2022-11-14T11:33:20.447Z,2.08
2022-11-14T11:36:27.100Z,2.50
2022-11-14T11:39:27.053Z,2.05
2022-11-14T11:42:33.907Z,1.90
2022-11-14T11:46:06.379Z,1.98
2022-11-14T11:49:03.966Z,2.38
2022-11-14T11:51:58.831Z,2.33
2022-11-14T11:55:17.595Z,2.88
2022-11-14T11:58:13.941Z,2.55
2022-11-14T12:01:00.648Z,3.50
2022-11-14T12:03:52.337Z,3.05
2022-11-14T12:07:05.721Z,3.67
2022-11-14T12:10:11.373Z,3.47
2022-11-14T12:13:25.535Z,2.95
2022-11-14T12:16:38.628Z,2.65
2022-11-14T12:19:48.884Z,2.70
2022-11-14T12:23:34.136Z,3.30
2022-11-14T12:27:09.811Z,3.25
2022-11-14T12:30:24.947Z,3.63
2022-11-14T12:37:38.969Z,4.15
2022-11-14T12:48:38.586Z,3.78
2022-11-14T12:52:09.682Z,4.50
2022-11-14T12:55:32.740Z,3.47
2022-11-14T12:59:07.530Z,3.75
2022-11-14T13:01:57.060Z,3.60
2022-11-14T13:05:24.860Z,3.92
2022-11-14T13:08:34.795Z,3.40
2022-11-14T13:12:01.163Z,3.08
2022-11-14T13:15:17.943Z,3.80
2022-11-14T13:18:50.273Z,3.08
2022-11-14T13:21:52.628Z,2.80
2022-11-14T13:25:54.261Z,2.92
2022-11-14T13:29:19.452Z,3.40
2022-11-14T13:32:34.205Z,3.45
2022-11-14T13:35:44.921Z,3.15
2022-11-14T13:38:57.283Z,3.70
2022-11-14T13:42:20.739Z,3.88
2022-11-14T13:45:37.808Z,5.30
2022-11-14T13:48:44.825Z,4.10
2022-11-14T13:51:43.307Z,4.28
2022-11-14T13:58:30.188Z,3.20
2022-11-14T14:02:21.720Z,3.50
2022-11-14T14:09:45.038Z,3.97
2022-11-14T14:13:19.356Z,3.63
2022-11-14T14:25:50.446Z,4.03
2022-11-14T14:29:36.742Z,4.80
2022-11-14T14:32:49.934Z,3.67
2022-11-14T14:35:45.979Z,4.40
2022-11-14T14:38:33.608Z,3.67
2022-11-14T14:41:27.731Z,4.43
2022-11-14T14:45:00.662Z,5.47
2022-11-14T14:47:52.455Z,5.43
2022-11-14T14:51:35.548Z,5.47
2022-11-14T14:54:43.334Z,5.00
2022-11-14T14:57:34.961Z,5.00
2022-11-14T15:00:31.151Z,4.25
2022-11-14T15:04:21.228Z,4.43
2022-11-14T15:06:35.236Z,4.05
2022-11-14T15:13:44.775Z,5.75
2022-11-14T15:20:37.354Z,6.68
2022-11-14T15:23:35.441Z,7.65
2022-11-14T15:26:21.596Z,7.15
2022-11-14T15:29:23.673Z,7.15
2022-11-14T15:35:42.890Z,5.95
2022-11-14T15:38:57.930Z,5.75
2022-11-14T15:42:06.489Z,5.97
2022-11-14T15:49:50.605Z,5.38
2022-11-14T15:58:54.998Z,5.40
2022-11-14T16:01:53.584Z,5.13
2022-11-14T16:05:04.529Z,5.65
2022-11-14T16:22:03.204Z,7.72
2022-11-14T16:25:00.627Z,7.05
2022-11-14T16:27:53.462Z,6.32
2022-11-14T16:30:59.616Z,6.32
2022-11-14T16:33:59.105Z,5.85
2022-11-14T16:40:37.146Z,5.55
2022-11-14T16:43:49.580Z,5.03
2022-11-14T16:46:39.988Z,5.18
2022-11-14T16:49:40.980Z,5.40
2022-11-14T16:52:39.594Z,5.60
2022-11-14T17:00:02.243Z,4.53
2022-11-14T17:02:56.681Z,4.68
2022-11-14T17:05:55.697Z,4.75
2022-11-14T17:09:04.021Z,4.00
2022-11-14T17:18:38.175Z,3.67
2022-11-14T17:21:54.456Z,3.42
2022-11-14T17:30:54.130Z,4.18
2022-11-14T18:07:33.049Z,4.15
2022-11-14T18:11:00.993Z,4.97
2022-11-14T18:14:02.002Z,5.05
2022-11-14T18:27:19.702Z,5.40
2022-11-14T18:30:39.278Z,5.10
2022-11-14T18:39:55.009Z,5.93
2022-11-14T18:46:53.078Z,6.82
2022-11-14T19:00:40.406Z,5.75
2022-11-14T19:09:46.765Z,6.07
2022-11-14T19:12:37.604Z,6.10
2022-11-14T19:16:21.711Z,5.47
2022-11-14T19:19:33.854Z,5.85
2022-11-14T19:22:32.052Z,6.18
2022-11-14T19:25:17.898Z,6.22
2022-11-14T19:28:16.936Z,5.22
2022-11-14T19:34:34.025Z,6.43
2022-11-14T19:37:25.012Z,6.88
2022-11-14T19:40:13.602Z,6.65
2022-11-14T19:43:45.883Z,5.30
2022-11-14T19:46:54.608Z,7.15
2022-11-14T19:51:26.680Z,5.50
2022-11-14T19:54:00.574Z,5.90
2022-11-14T19:57:37.935Z,5.22
2022-11-14T20:01:10.951Z,5.73
2022-11-14T20:04:15.462Z,5.20
2022-11-14T20:07:01.334Z,5.30
2022-11-14T20:12:44.218Z,6.25
2022-11-14T20:15:32.996Z,6.35
2022-11-14T20:18:26.208Z,6.38
2022-11-14T20:21:25.350Z,5.53
2022-11-14T20:31:56.273Z,5.50
2022-11-14T20:35:02.826Z,5.53
2022-11-14T20:40:57.036Z,5.18
2022-11-14T20:43:47.907Z,5.53
2022-11-14T20:46:38.782Z,6.22
2022-11-14T20:49:37.423Z,5.45
2022-11-14T20:52:24.854Z,6.43
2022-11-14T20:55:18.014Z,5.68
2022-11-14T20:58:03.927Z,5.65
2022-11-14T21:01:01.791Z,5.55
2022-11-14T21:03:57.135Z,6.03
2022-11-14T21:06:47.266Z,6.97
2022-11-14T21:09:47.406Z,6.93
2022-11-14T21:16:34.992Z,7.38
2022-11-14T21:19:23.335Z,8.90
2022-11-14T21:22:13.592Z,8.40
2022-11-14T21:25:04.696Z,8.65
2022-11-14T21:27:53.454Z,7.20
2022-11-14T21:30:39.605Z,7.90
2022-11-14T21:40:48.786Z,10.48
2022-11-14T21:43:35.124Z,10.40
2022-11-14T21:46:21.717Z,10.32
2022-11-14T21:49:21.124Z,10.20
2022-11-14T21:52:20.216Z,10.10
2022-11-14T21:55:50.692Z,10.30
2022-11-14T21:59:13.110Z,10.32
2022-11-14T22:02:17.680Z,10.23
2022-11-14T22:05:03.470Z,10.35
2022-11-14T22:07:56.819Z,10.63
2022-11-14T22:10:50.849Z,10.50
2022-11-14T22:13:36.638Z,9.75
2022-11-14T22:16:28.372Z,8.93
2022-11-14T22:19:14.248Z,9.65
2022-11-14T22:22:09.082Z,9.45
2022-11-14T22:24:57.923Z,9.70
2022-11-14T22:28:00.313Z,8.77
2022-11-14T22:30:46.537Z,7.18
2022-11-14T22:36:41.932Z,8.45
2022-11-14T22:39:27.595Z,8.27
2022-11-14T22:42:13.349Z,7.35
2022-11-14T22:45:00.563Z,7.88
2022-11-14T22:47:46.289Z,7.00
2022-11-14T22:50:31.872Z,6.30
2022-11-14T22:53:17.567Z,5.82
2022-11-14T22:56:07.037Z,4.35
2022-11-14T22:58:52.773Z,5.25
2022-11-14T23:01:40.380Z,5.50
2022-11-14T23:04:27.786Z,5.55
2022-11-14T23:07:13.209Z,4.72
2022-11-14T23:09:59.152Z,5.18
2022-11-14T23:12:44.717Z,5.40
2022-11-14T23:15:35.377Z,4.35
2022-11-14T23:18:23.959Z,4.90
2022-11-14T23:21:13.189Z,4.40
2022-11-14T23:24:01.177Z,4.70
2022-11-14T23:26:47.100Z,4.82
2022-11-14T23:29:33.071Z,4.75
2022-11-14T23:32:18.720Z,4.72
2022-11-14T23:35:04.815Z,3.70
2022-11-14T23:37:50.238Z,4.28
2022-11-14T23:40:35.746Z,4.40
2022-11-14T23:43:31.340Z,4.68
2022-11-14T23:46:30.678Z,5.07
2022-11-14T23:49:27.499Z,5.15
2022-11-14T23:52:29.329Z,5.30
2022-11-14T23:55:17.918Z,5.82
2022-11-14T23:58:12.488Z,6.72
